sensor_id;sensor_type;location;lat;lon;timestamp;P1;durP1;ratioP1;P2;durP2;ratioP2
16177;SDS011;8195;51.220;9.746;2023-03-20T00:03:29;1.50;;;1.40;;
16177;SDS011;8195;51.220;9.746;2023-03-20T00:13:46;1.53;;;1.43;;
16177;SDS011;8195;51.220;9.746;2023-03-20T00:24:07;1.50;;;1.40;;
16177;SDS011;8195;51.220;9.746;2023-03-20T00:45:11;2.10;;;1.90;;
16177;SDS011;8195;51.220;9.746;2023-03-20T00:55:35;2.23;;;2.03;;
16177;SDS011;8195;51.220;9.746;2023-03-20T01:06:28;2.50;;;2.30;;
16177;SDS011;8195;51.220;9.746;2023-03-20T01:16:49;2.70;;;2.50;;
16177;SDS011;8195;51.220;9.746;2023-03-20T01:27:14;2.53;;;2.43;;
16177;SDS011;8195;51.220;9.746;2023-03-20T01:37:37;3.60;;;2.80;;
16177;SDS011;8195;51.220;9.746;2023-03-20T01:47:58;3.73;;;3.43;;
16177;SDS011;8195;51.220;9.746;2023-03-20T01:58:20;4.00;;;3.70;;
16177;SDS011;8195;51.220;9.746;2023-03-20T02:09:06;4.00;;;3.70;;
16177;SDS011;8195;51.220;9.746;2023-03-20T02:19:28;3.80;;;3.50;;
16177;SDS011;8195;51.220;9.746;2023-03-20T02:40:47;4.37;;;3.97;;
16177;SDS011;8195;51.220;9.746;2023-03-20T02:51:58;6.40;;;4.83;;
16177;SDS011;8195;51.220;9.746;2023-03-20T03:02:26;6.10;;;5.50;;
16177;SDS011;8195;51.220;9.746;2023-03-20T03:12:58;6.50;;;5.77;;
16177;SDS011;8195;51.220;9.746;2023-03-20T03:23:45;11.50;;;9.10;;
16177;SDS011;8195;51.220;9.746;2023-03-20T03:34:07;22.17;;;16.03;;
16177;SDS011;8195;51.220;9.746;2023-03-20T03:44:42;27.33;;;20.30;;
16177;SDS011;8195;51.220;9.746;2023-03-20T03:55:14;30.00;;;20.87;;
16177;SDS011;8195;51.220;9.746;2023-03-20T04:05:53;34.50;;;22.60;;
16177;SDS011;8195;51.220;9.746;2023-03-20T04:16:15;33.50;;;22.63;;
16177;SDS011;8195;51.220;9.746;2023-03-20T04:26:37;32.80;;;22.90;;
16177;SDS011;8195;51.220;9.746;2023-03-20T04:36:58;37.57;;;23.67;;
16177;SDS011;8195;51.220;9.746;2023-03-20T04:47:19;32.57;;;24.50;;
16177;SDS011;8195;51.220;9.746;2023-03-20T04:57:40;35.63;;;24.80;;
16177;SDS011;8195;51.220;9.746;2023-03-20T05:08:01;40.20;;;25.50;;
16177;SDS011;8195;51.220;9.746;2023-03-20T05:18:22;39.57;;;25.10;;
16177;SDS011;8195;51.220;9.746;2023-03-20T05:28:43;40.37;;;26.20;;
16177;SDS011;8195;51.220;9.746;2023-03-20T05:39:04;40.97;;;26.57;;
16177;SDS011;8195;51.220;9.746;2023-03-20T05:49:25;40.10;;;25.80;;
16177;SDS011;8195;51.220;9.746;2023-03-20T05:59:46;42.23;;;25.73;;
16177;SDS011;8195;51.220;9.746;2023-03-20T06:10:07;39.23;;;24.80;;
16177;SDS011;8195;51.220;9.746;2023-03-20T06:20:28;43.33;;;27.33;;
16177;SDS011;8195;51.220;9.746;2023-03-20T06:30:52;45.43;;;26.80;;
16177;SDS011;8195;51.220;9.746;2023-03-20T06:41:13;45.03;;;27.93;;
16177;SDS011;8195;51.220;9.746;2023-03-20T06:51:34;47.63;;;28.37;;
16177;SDS011;8195;51.220;9.746;2023-03-20T07:01:55;50.60;;;30.63;;
16177;SDS011;8195;51.220;9.746;2023-03-20T07:12:16;54.07;;;31.13;;
16177;SDS011;8195;51.220;9.746;2023-03-20T07:22:36;61.67;;;32.50;;
16177;SDS011;8195;51.220;9.746;2023-03-20T07:32:58;59.70;;;32.90;;
16177;SDS011;8195;51.220;9.746;2023-03-20T07:43:19;55.90;;;32.43;;
16177;SDS011;8195;51.220;9.746;2023-03-20T07:53:40;55.03;;;32.57;;
16177;SDS011;8195;51.220;9.746;2023-03-20T08:04:01;50.67;;;29.90;;
16177;SDS011;8195;51.220;9.746;2023-03-20T08:14:22;50.53;;;31.57;;
16177;SDS011;8195;51.220;9.746;2023-03-20T08:24:43;48.10;;;29.00;;
16177;SDS011;8195;51.220;9.746;2023-03-20T08:35:05;45.30;;;30.00;;
16177;SDS011;8195;51.220;9.746;2023-03-20T08:45:26;50.57;;;28.23;;
16177;SDS011;8195;51.220;9.746;2023-03-20T08:55:48;42.40;;;27.77;;
16177;SDS011;8195;51.220;9.746;2023-03-20T09:06:09;57.03;;;30.60;;
16177;SDS011;8195;51.220;9.746;2023-03-20T09:16:30;51.80;;;29.77;;
16177;SDS011;8195;51.220;9.746;2023-03-20T09:26:51;50.23;;;30.03;;
16177;SDS011;8195;51.220;9.746;2023-03-20T09:37:12;41.40;;;26.77;;
16177;SDS011;8195;51.220;9.746;2023-03-20T09:47:43;38.33;;;26.03;;
16177;SDS011;8195;51.220;9.746;2023-03-20T09:58:26;31.50;;;23.47;;
16177;SDS011;8195;51.220;9.746;2023-03-20T10:08:51;28.10;;;20.70;;
16177;SDS011;8195;51.220;9.746;2023-03-20T10:19:29;29.23;;;20.90;;
16177;SDS011;8195;51.220;9.746;2023-03-20T10:30:14;23.30;;;18.67;;
16177;SDS011;8195;51.220;9.746;2023-03-20T10:40:39;20.83;;;15.90;;
16177;SDS011;8195;51.220;9.746;2023-03-20T10:51:02;14.67;;;12.97;;
16177;SDS011;8195;51.220;9.746;2023-03-20T11:01:23;15.53;;;12.30;;
16177;SDS011;8195;51.220;9.746;2023-03-20T11:11:45;19.83;;;15.10;;
16177;SDS011;8195;51.220;9.746;2023-03-20T11:32:46;18.20;;;14.13;;
16177;SDS011;8195;51.220;9.746;2023-03-20T11:43:11;14.37;;;12.67;;
16177;SDS011;8195;51.220;9.746;2023-03-20T12:04:09;13.37;;;10.83;;
16177;SDS011;8195;51.220;9.746;2023-03-20T12:14:34;13.23;;;11.87;;
16177;SDS011;8195;51.220;9.746;2023-03-20T12:25:06;13.93;;;12.33;;
16177;SDS011;8195;51.220;9.746;2023-03-20T12:35:37;14.17;;;12.20;;
16177;SDS011;8195;51.220;9.746;2023-03-20T12:56:55;12.30;;;11.00;;
16177;SDS011;8195;51.220;9.746;2023-03-20T13:07:23;12.33;;;10.70;;
16177;SDS011;8195;51.220;9.746;2023-03-20T13:39:43;8.33;;;7.30;;
16177;SDS011;8195;51.220;9.746;2023-03-20T14:21:46;9.17;;;7.83;;
16177;SDS011;8195;51.220;9.746;2023-03-20T14:42:46;8.43;;;7.53;;
16177;SDS011;8195;51.220;9.746;2023-03-20T14:53:34;9.77;;;7.70;;
16177;SDS011;8195;51.220;9.746;2023-03-20T15:03:56;8.03;;;7.23;;
16177;SDS011;8195;51.220;9.746;2023-03-20T15:14:41;8.23;;;7.43;;
16177;SDS011;8195;51.220;9.746;2023-03-20T15:25:28;7.47;;;6.77;;
16177;SDS011;8195;51.220;9.746;2023-03-20T15:35:52;6.30;;;5.70;;
16177;SDS011;8195;51.220;9.746;2023-03-20T15:46:13;6.17;;;5.07;;
16177;SDS011;8195;51.220;9.746;2023-03-20T15:56:34;5.47;;;4.23;;
16177;SDS011;8195;51.220;9.746;2023-03-20T16:06:58;3.90;;;3.47;;
16177;SDS011;8195;51.220;9.746;2023-03-20T16:17:20;6.17;;;5.57;;
16177;SDS011;8195;51.220;9.746;2023-03-20T16:27:48;4.13;;;3.80;;
16177;SDS011;8195;51.220;9.746;2023-03-20T16:38:15;10.73;;;9.80;;
16177;SDS011;8195;51.220;9.746;2023-03-20T16:48:47;5.00;;;4.60;;
16177;SDS011;8195;51.220;9.746;2023-03-20T16:59:39;5.73;;;4.70;;
16177;SDS011;8195;51.220;9.746;2023-03-20T17:10:17;5.80;;;5.30;;
16177;SDS011;8195;51.220;9.746;2023-03-20T17:20:40;9.23;;;8.37;;
16177;SDS011;8195;51.220;9.746;2023-03-20T17:31:15;6.37;;;4.43;;
16177;SDS011;8195;51.220;9.746;2023-03-20T17:41:41;5.30;;;4.80;;
16177;SDS011;8195;51.220;9.746;2023-03-20T18:03:15;6.20;;;5.60;;
16177;SDS011;8195;51.220;9.746;2023-03-20T18:13:42;7.03;;;5.57;;
16177;SDS011;8195;51.220;9.746;2023-03-20T18:24:15;6.70;;;5.43;;
16177;SDS011;8195;51.220;9.746;2023-03-20T18:45:33;5.27;;;4.77;;
16177;SDS011;8195;51.220;9.746;2023-03-20T18:56:02;5.60;;;4.93;;
16177;SDS011;8195;51.220;9.746;2023-03-20T19:06:30;7.27;;;6.57;;
16177;SDS011;8195;51.220;9.746;2023-03-20T19:17:00;6.83;;;5.40;;
16177;SDS011;8195;51.220;9.746;2023-03-20T19:27:30;5.17;;;4.67;;
16177;SDS011;8195;51.220;9.746;2023-03-20T19:37:57;5.80;;;4.90;;
16177;SDS011;8195;51.220;9.746;2023-03-20T19:48:19;6.50;;;5.37;;
16177;SDS011;8195;51.220;9.746;2023-03-20T19:58:46;6.37;;;5.87;;
16177;SDS011;8195;51.220;9.746;2023-03-20T20:09:08;5.50;;;4.90;;
16177;SDS011;8195;51.220;9.746;2023-03-20T20:19:35;4.03;;;3.63;;
16177;SDS011;8195;51.220;9.746;2023-03-20T20:30:03;5.63;;;4.83;;
16177;SDS011;8195;51.220;9.746;2023-03-20T20:40:32;6.10;;;5.10;;
16177;SDS011;8195;51.220;9.746;2023-03-20T20:51:00;6.00;;;5.50;;
16177;SDS011;8195;51.220;9.746;2023-03-20T21:01:21;8.27;;;7.57;;
16177;SDS011;8195;51.220;9.746;2023-03-20T21:11:44;6.23;;;5.63;;
16177;SDS011;8195;51.220;9.746;2023-03-20T21:22:06;11.53;;;10.33;;
16177;SDS011;8195;51.220;9.746;2023-03-20T21:32:29;10.03;;;7.10;;
16177;SDS011;8195;51.220;9.746;2023-03-20T21:42:50;7.43;;;5.77;;
16177;SDS011;8195;51.220;9.746;2023-03-20T21:53:11;7.87;;;6.17;;
16177;SDS011;8195;51.220;9.746;2023-03-20T22:03:34;7.27;;;5.77;;
16177;SDS011;8195;51.220;9.746;2023-03-20T22:13:55;9.90;;;6.00;;
16177;SDS011;8195;51.220;9.746;2023-03-20T22:24:16;8.07;;;5.20;;
16177;SDS011;8195;51.220;9.746;2023-03-20T22:34:37;8.87;;;5.67;;
16177;SDS011;8195;51.220;9.746;2023-03-20T22:45:04;6.03;;;5.10;;
16177;SDS011;8195;51.220;9.746;2023-03-20T22:55:39;6.90;;;5.20;;
16177;SDS011;8195;51.220;9.746;2023-03-20T23:06:20;6.83;;;5.80;;
16177;SDS011;8195;51.220;9.746;2023-03-20T23:28:08;6.23;;;5.07;;
16177;SDS011;8195;51.220;9.746;2023-03-20T23:38:29;5.87;;;5.27;;
16177;SDS011;8195;51.220;9.746;2023-03-20T23:48:51;8.20;;;5.47;;
16177;SDS011;8195;51.220;9.746;2023-03-20T23:59:21;7.27;;;5.50;;
